Time;durP1;ratioP1;P1;durP2;ratioP2;P2;SDS_P1;SDS_P2;PMS_P1;PMS_P2;Temp;Humidity;BMP_temperature;BMP_pressure;BME280_temperature;BME280_humidity;BME280_pressure;Samples;Min_cycle;Max_cycle;Signal;HPM_P1;HPM_P2
2023/09/12 00:02:19;;;;;;;4.20;3.47;;;;;;;;;;6155059;23;20254;-90
2023/09/12 00:04:46;;;;;;;2.80;2.60;;;;;;;;;;6155128;23;20195;-89
2023/09/12 00:07:15;;;;;;;3.20;3.00;;;;;;;;;;6155320;23;20578;-90
2023/09/12 00:09:42;;;;;;;5.32;3.15;;;;;;;;;;6166358;23;20186;-87
2023/09/12 00:12:10;;;;;;;6.00;3.45;;;;;;;;;;6182992;23;20182;-88
2023/09/12 00:14:38;;;;;;;5.65;4.00;;;;;;;;;;6182560;23;20155;-88
2023/09/12 00:17:05;;;;;;;4.60;3.28;;;;;;;;;;6183156;23;20162;-89
2023/09/12 00:19:33;;;;;;;3.67;3.35;;;;;;;;;;6173079;23;20171;-89
2023/09/12 00:22:00;;;;;;;7.75;2.90;;;;;;;;;;6156678;23;20255;-89
2023/09/12 00:24:29;;;;;;;4.78;3.65;;;;;;;;;;6155130;23;20191;-89
2023/09/12 00:26:57;;;;;;;4.10;3.70;;;;;;;;;;6155745;23;20245;-90
2023/09/12 00:29:24;;;;;;;7.55;4.30;;;;;;;;;;6156142;23;20242;-89
2023/09/12 00:31:52;;;;;;;7.05;3.70;;;;;;;;;;6155276;23;20242;-90
2023/09/12 00:34:19;;;;;;;5.65;4.25;;;;;;;;;;6155478;23;20190;-90
2023/09/12 00:36:47;;;;;;;6.25;3.95;;;;;;;;;;6155384;23;20716;-89
2023/09/12 00:39:14;;;;;;;5.95;3.55;;;;;;;;;;6159077;23;20199;-90
2023/09/12 00:41:43;;;;;;;4.18;3.60;;;;;;;;;;6155537;23;20573;-90
2023/09/12 00:44:12;;;;;;;5.35;3.42;;;;;;;;;;6155241;23;20195;-89
2023/09/12 00:46:41;;;;;;;3.65;3.40;;;;;;;;;;6155224;23;20250;-89
2023/09/12 00:49:09;;;;;;;5.15;4.22;;;;;;;;;;6153513;23;20577;-89
2023/09/12 00:51:37;;;;;;;4.65;4.20;;;;;;;;;;6154432;23;20175;-89
2023/09/12 00:54:05;;;;;;;3.95;3.08;;;;;;;;;;6154940;23;20246;-89
2023/09/12 00:56:33;;;;;;;9.23;4.85;;;;;;;;;;6158624;23;20274;-89
2023/09/12 00:59:02;;;;;;;4.43;3.78;;;;;;;;;;6154648;23;20251;-89
2023/09/12 01:01:30;;;;;;;4.90;3.88;;;;;;;;;;6154581;23;20171;-88
2023/09/12 01:03:58;;;;;;;4.22;3.67;;;;;;;;;;6154777;23;20222;-89
2023/09/12 01:06:27;;;;;;;4.72;3.65;;;;;;;;;;6154932;23;20521;-89
2023/09/12 01:08:54;;;;;;;3.53;2.88;;;;;;;;;;6154642;23;20179;-89
2023/09/12 01:11:22;;;;;;;4.55;4.13;;;;;;;;;;6154850;23;20168;-89
2023/09/12 01:13:49;;;;;;;5.88;4.18;;;;;;;;;;6154629;23;20569;-89
2023/09/12 01:16:18;;;;;;;6.07;5.05;;;;;;;;;;6154792;23;20225;-90
2023/09/12 01:18:46;;;;;;;6.10;4.13;;;;;;;;;;6155340;23;20551;-89
2023/09/12 01:21:45;;;;;;;7.45;5.00;;;;;;;;;;6154587;23;20177;-89
2023/09/12 01:25:01;;;;;;;9.02;5.78;;;;;;;;;;6139927;23;20226;-89
2023/09/12 01:27:33;;;;;;;13.88;5.18;;;;;;;;;;6155058;23;20174;-89
2023/09/12 01:30:05;;;;;;;8.80;5.85;;;;;;;;;;6155359;23;20171;-90
2023/09/12 01:32:34;;;;;;;5.93;4.13;;;;;;;;;;6155159;23;20203;-89
2023/09/12 01:35:03;;;;;;;5.30;4.03;;;;;;;;;;6154396;23;20215;-88
2023/09/12 01:37:31;;;;;;;6.63;3.65;;;;;;;;;;6154712;23;20229;-89
2023/09/12 01:39:58;;;;;;;4.30;3.90;;;;;;;;;;6154708;23;20175;-89
2023/09/12 01:42:32;;;;;;;3.08;2.38;;;;;;;;;;6154125;23;20513;-89
2023/09/12 01:45:02;;;;;;;5.63;3.80;;;;;;;;;;6158136;23;20278;-88
2023/09/12 01:47:30;;;;;;;3.67;3.22;;;;;;;;;;6154401;23;20181;-89
2023/09/12 01:49:59;;;;;;;4.72;3.50;;;;;;;;;;6154379;23;20206;-88
2023/09/12 01:52:28;;;;;;;2.58;2.38;;;;;;;;;;6154150;23;20198;-89
2023/09/12 01:54:56;;;;;;;4.68;3.13;;;;;;;;;;6154475;23;20238;-89
2023/09/12 01:57:23;;;;;;;2.60;2.40;;;;;;;;;;6159081;23;20651;-89
2023/09/12 01:59:52;;;;;;;3.75;3.00;;;;;;;;;;6155437;23;20210;-91
2023/09/12 02:02:20;;;;;;;3.60;3.30;;;;;;;;;;6156557;23;20191;-88
2023/09/12 02:04:55;;;;;;;7.28;3.70;;;;;;;;;;6156303;23;20524;-89
2023/09/12 02:07:24;;;;;;;3.00;2.70;;;;;;;;;;6156531;23;20242;-88
2023/09/12 02:09:52;;;;;;;3.10;2.42;;;;;;;;;;6156750;23;20659;-89
2023/09/12 02:12:19;;;;;;;2.45;2.25;;;;;;;;;;6155942;23;20226;-89
2023/09/12 02:14:47;;;;;;;2.92;2.70;;;;;;;;;;6156213;23;20207;-89
2023/09/12 02:17:16;;;;;;;4.25;2.90;;;;;;;;;;6156073;23;20171;-89
2023/09/12 02:19:43;;;;;;;4.70;3.80;;;;;;;;;;6155940;23;20250;-89
2023/09/12 02:22:11;;;;;;;3.97;3.58;;;;;;;;;;6155805;23;20556;-89
2023/09/12 02:24:38;;;;;;;4.57;2.97;;;;;;;;;;6156069;23;20198;-88
2023/09/12 02:27:06;;;;;;;3.75;3.25;;;;;;;;;;6156518;23;20568;-89
2023/09/12 02:29:34;;;;;;;4.10;3.70;;;;;;;;;;6156040;23;20705;-89
2023/09/12 02:32:02;;;;;;;4.95;3.08;;;;;;;;;;6155775;23;20176;-89
2023/09/12 02:34:31;;;;;;;2.88;2.58;;;;;;;;;;6156631;23;20202;-89
2023/09/12 02:36:59;;;;;;;3.97;2.15;;;;;;;;;;6155976;23;20540;-88
2023/09/12 02:39:26;;;;;;;2.67;2.47;;;;;;;;;;6155922;23;20246;-89
2023/09/12 02:41:54;;;;;;;4.00;2.90;;;;;;;;;;6155838;23;20171;-89
2023/09/12 02:44:22;;;;;;;4.13;3.40;;;;;;;;;;6155823;23;20576;-90
2023/09/12 02:46:49;;;;;;;4.47;3.40;;;;;;;;;;6156045;23;20231;-89
2023/09/12 02:49:17;;;;;;;5.63;4.65;;;;;;;;;;6155514;23;20247;-89
2023/09/12 02:51:47;;;;;;;5.10;3.90;;;;;;;;;;6155323;23;20175;-89
2023/09/12 02:54:14;;;;;;;4.90;4.20;;;;;;;;;;6156147;23;20195;-89
2023/09/12 02:56:42;;;;;;;7.75;4.18;;;;;;;;;;6155385;23;20277;-89
2023/09/12 02:59:09;;;;;;;6.05;3.20;;;;;;;;;;6155655;23;20199;-89
2023/09/12 03:01:37;;;;;;;3.35;3.05;;;;;;;;;;6155404;23;20173;-89
2023/09/12 03:04:05;;;;;;;6.03;3.50;;;;;;;;;;6155719;23;20257;-88
2023/09/12 03:06:33;;;;;;;7.80;4.00;;;;;;;;;;6154980;23;20715;-89
2023/09/12 03:09:03;;;;;;;6.20;4.63;;;;;;;;;;6155675;23;20705;-89
2023/09/12 03:11:30;;;;;;;4.90;3.60;;;;;;;;;;6154822;23;20674;-89
2023/09/12 03:13:58;;;;;;;4.10;2.97;;;;;;;;;;6155274;23;20210;-89
2023/09/12 03:16:25;;;;;;;5.50;4.03;;;;;;;;;;6154048;23;20563;-88
2023/09/12 03:18:53;;;;;;;5.88;3.72;;;;;;;;;;6147083;23;20250;-88
2023/09/12 03:21:20;;;;;;;5.25;3.70;;;;;;;;;;6147624;23;20672;-89
2023/09/12 03:23:48;;;;;;;3.58;3.10;;;;;;;;;;6146787;23;20174;-88
2023/09/12 03:26:17;;;;;;;3.25;2.72;;;;;;;;;;6147912;23;20729;-89
2023/09/12 03:28:44;;;;;;;2.35;2.15;;;;;;;;;;6148017;23;20233;-89
2023/09/12 03:31:14;;;;;;;5.22;2.85;;;;;;;;;;6147440;23;20254;-89
2023/09/12 03:33:47;;;;;;;3.92;3.45;;;;;;;;;;6147448;23;20254;-87
2023/09/12 03:36:15;;;;;;;3.60;3.22;;;;;;;;;;6147667;23;20215;-89
2023/09/12 03:38:43;;;;;;;7.30;3.90;;;;;;;;;;6148345;23;20250;-88
2023/09/12 03:41:10;;;;;;;3.22;2.80;;;;;;;;;;6147474;23;20175;-87
2023/09/12 03:43:39;;;;;;;3.47;2.92;;;;;;;;;;6148205;23;20534;-88
2023/09/12 03:46:07;;;;;;;4.20;3.30;;;;;;;;;;6148915;23;20202;-89
2023/09/12 03:48:36;;;;;;;2.80;2.60;;;;;;;;;;6148295;23;20250;-88
2023/09/12 03:51:04;;;;;;;3.85;3.47;;;;;;;;;;6150631;23;20171;-89
2023/09/12 03:53:32;;;;;;;4.32;3.20;;;;;;;;;;6148221;23;20193;-87
2023/09/12 03:56:00;;;;;;;3.85;3.40;;;;;;;;;;6147588;23;20238;-88
2023/09/12 03:58:28;;;;;;;5.63;3.38;;;;;;;;;;6147698;23;20171;-87
2023/09/12 04:00:58;;;;;;;8.05;3.80;;;;;;;;;;6121535;23;20187;-88
2023/09/12 04:03:26;;;;;;;4.47;3.08;;;;;;;;;;6146944;23;20703;-88
2023/09/12 04:05:53;;;;;;;7.78;5.10;;;;;;;;;;6147091;23;20258;-89
2023/09/12 04:08:21;;;;;;;6.20;5.10;;;;;;;;;;6147697;23;20246;-89
2023/09/12 04:10:49;;;;;;;11.85;6.15;;;;;;;;;;6147027;23;20691;-89
2023/09/12 04:13:16;;;;;;;8.43;6.07;;;;;;;;;;6146894;23;20201;-88
2023/09/12 04:15:44;;;;;;;6.20;5.60;;;;;;;;;;6147398;23;20198;-89
2023/09/12 04:18:12;;;;;;;10.25;7.60;;;;;;;;;;6146973;23;20203;-89
2023/09/12 04:20:40;;;;;;;8.07;7.28;;;;;;;;;;6147574;23;20250;-89
2023/09/12 04:23:08;;;;;;;9.25;7.72;;;;;;;;;;6150913;23;20175;-89
2023/09/12 04:25:35;;;;;;;10.25;8.18;;;;;;;;;;6146557;23;20195;-89
2023/09/12 04:28:03;;;;;;;9.73;8.63;;;;;;;;;;6147127;23;20534;-89
2023/09/12 04:30:31;;;;;;;11.55;9.13;;;;;;;;;;6166563;23;20187;-88
2023/09/12 04:32:58;;;;;;;13.73;9.52;;;;;;;;;;6176873;23;20163;-88
2023/09/12 04:35:28;;;;;;;8.73;7.82;;;;;;;;;;6176983;23;20197;-87
2023/09/12 04:37:55;;;;;;;7.82;7.13;;;;;;;;;;6165675;23;20506;-88
2023/09/12 04:40:23;;;;;;;9.43;8.20;;;;;;;;;;6148483;23;20186;-88
2023/09/12 04:42:50;;;;;;;11.45;8.88;;;;;;;;;;6147575;23;20206;-89
2023/09/12 04:45:18;;;;;;;9.65;8.73;;;;;;;;;;6147764;23;20688;-89
2023/09/12 04:47:45;;;;;;;9.80;8.80;;;;;;;;;;6146691;23;20568;-89
2023/09/12 04:50:13;;;;;;;9.23;8.25;;;;;;;;;;6146846;23;20202;-89
2023/09/12 04:52:42;;;;;;;8.82;8.00;;;;;;;;;;6146499;23;20226;-89
2023/09/12 04:55:10;;;;;;;11.88;10.05;;;;;;;;;;6147102;23;20283;-89
2023/09/12 04:57:37;;;;;;;11.40;10.02;;;;;;;;;;6147221;23;20183;-89
2023/09/12 05:00:06;;;;;;;11.45;10.45;;;;;;;;;;6146834;23;20175;-89
2023/09/12 05:02:34;;;;;;;12.60;10.27;;;;;;;;;;6146698;23;20183;-89
2023/09/12 05:05:02;;;;;;;9.82;8.90;;;;;;;;;;6147112;23;20713;-88
2023/09/12 05:07:31;;;;;;;12.77;10.20;;;;;;;;;;6147022;23;20519;-90
2023/09/12 05:10:00;;;;;;;13.00;10.43;;;;;;;;;;6146287;23;20714;-89
2023/09/12 05:12:27;;;;;;;10.63;8.32;;;;;;;;;;6147220;23;20174;-89
2023/09/12 05:14:55;;;;;;;12.00;9.02;;;;;;;;;;6147115;23;20277;-88
2023/09/12 05:17:23;;;;;;;9.57;8.68;;;;;;;;;;6148152;23;20262;-89
2023/09/12 05:19:50;;;;;;;10.02;8.70;;;;;;;;;;6154297;23;20198;-89
2023/09/12 05:22:18;;;;;;;14.10;9.43;;;;;;;;;;6154373;23;20178;-89
2023/09/12 05:24:45;;;;;;;13.13;10.20;;;;;;;;;;6154592;23;20589;-90
2023/09/12 05:27:14;;;;;;;10.57;9.43;;;;;;;;;;6154977;23;20230;-89
2023/09/12 05:29:42;;;;;;;6.68;6.03;;;;;;;;;;6154493;23;20181;-89
2023/09/12 05:32:09;;;;;;;9.93;8.85;;;;;;;;;;6154615;23;20254;-90
2023/09/12 05:34:37;;;;;;;7.60;6.90;;;;;;;;;;6153453;23;20226;-88
2023/09/12 05:37:05;;;;;;;11.30;10.18;;;;;;;;;;6156809;23;20679;-89
2023/09/12 05:39:32;;;;;;;11.60;10.57;;;;;;;;;;6156644;23;20171;-89
2023/09/12 05:42:00;;;;;;;12.43;11.18;;;;;;;;;;6156602;23;20558;-89
2023/09/12 05:44:29;;;;;;;14.55;10.15;;;;;;;;;;6156987;23;20242;-90
2023/09/12 05:46:57;;;;;;;14.13;9.77;;;;;;;;;;6156673;23;20273;-90
2023/09/12 05:49:24;;;;;;;14.25;11.25;;;;;;;;;;6156789;23;20178;-90
2023/09/12 05:51:52;;;;;;;12.43;11.00;;;;;;;;;;6156390;23;20171;-90
2023/09/12 05:54:20;;;;;;;13.38;10.32;;;;;;;;;;6156807;23;20695;-89
2023/09/12 05:56:48;;;;;;;14.13;10.10;;;;;;;;;;6156779;23;20234;-89
2023/09/12 05:59:16;;;;;;;11.05;9.95;;;;;;;;;;6156566;23;20201;-91
2023/09/12 06:01:45;;;;;;;11.15;9.95;;;;;;;;;;6156464;23;20571;-90
2023/09/12 06:04:12;;;;;;;12.15;10.82;;;;;;;;;;6156811;23;20175;-90
2023/09/12 06:06:40;;;;;;;11.32;10.02;;;;;;;;;;6156379;23;20210;-89
2023/09/12 06:09:08;;;;;;;13.80;9.45;;;;;;;;;;6156750;23;20287;-90
2023/09/12 06:11:36;;;;;;;14.20;10.48;;;;;;;;;;6156246;23;20218;-90
2023/09/12 06:14:03;;;;;;;13.52;9.77;;;;;;;;;;6156368;23;20199;-90
2023/09/12 06:16:31;;;;;;;10.90;9.75;;;;;;;;;;6156259;23;20191;-89
2023/09/12 06:19:00;;;;;;;11.27;9.55;;;;;;;;;;6156892;23;20725;-89
2023/09/12 06:21:27;;;;;;;10.95;9.57;;;;;;;;;;6156003;23;20203;-90
2023/09/12 06:24:12;;;;;;;10.05;8.88;;;;;;;;;;6156321;23;20191;-90
2023/09/12 06:26:39;;;;;;;9.02;8.13;;;;;;;;;;6158895;23;20195;-91
2023/09/12 06:29:07;;;;;;;9.88;8.10;;;;;;;;;;6157721;23;20195;-90
2023/09/12 06:31:35;;;;;;;6.18;5.68;;;;;;;;;;6155796;23;20167;-91
2023/09/12 06:34:05;;;;;;;8.32;7.53;;;;;;;;;;6155925;23;20171;-89
2023/09/12 06:36:32;;;;;;;5.70;5.20;;;;;;;;;;6160414;23;20222;-88
2023/09/12 06:39:00;;;;;;;5.05;4.65;;;;;;;;;;6156250;23;20593;-87
2023/09/12 06:41:29;;;;;;;4.93;4.53;;;;;;;;;;6156217;23;20258;-85
2023/09/12 06:43:58;;;;;;;6.13;5.60;;;;;;;;;;6157102;23;20259;-87
2023/09/12 06:46:27;;;;;;;8.45;7.18;;;;;;;;;;6155568;23;20199;-87
2023/09/12 06:48:56;;;;;;;8.30;7.50;;;;;;;;;;6154237;23;20282;-86
2023/09/12 06:51:26;;;;;;;5.75;5.28;;;;;;;;;;6154438;23;20237;-87
2023/09/12 06:53:54;;;;;;;5.28;4.40;;;;;;;;;;6154741;23;20171;-87
2023/09/12 06:56:22;;;;;;;6.07;5.47;;;;;;;;;;6155043;23;20285;-87
2023/09/12 06:58:49;;;;;;;6.57;6.05;;;;;;;;;;6155853;23;20182;-88
2023/09/12 07:01:17;;;;;;;6.60;5.28;;;;;;;;;;6155311;23;20203;-87
2023/09/12 07:03:44;;;;;;;6.00;5.13;;;;;;;;;;6155452;23;20254;-86
2023/09/12 07:06:12;;;;;;;8.10;7.30;;;;;;;;;;6154825;23;20222;-87
2023/09/12 07:08:40;;;;;;;8.55;7.70;;;;;;;;;;6155177;23;20195;-89
2023/09/12 07:11:08;;;;;;;6.53;5.93;;;;;;;;;;6155464;23;20262;-87
2023/09/12 07:13:35;;;;;;;6.13;4.95;;;;;;;;;;6156224;23;20198;-88
2023/09/12 07:16:04;;;;;;;6.18;5.68;;;;;;;;;;6155458;23;20600;-87
2023/09/12 07:18:33;;;;;;;7.45;6.78;;;;;;;;;;6155736;23;20175;-87
2023/09/12 07:21:01;;;;;;;11.02;9.90;;;;;;;;;;6154956;23;20182;-87
2023/09/12 07:23:29;;;;;;;8.82;7.90;;;;;;;;;;6155693;23;20174;-88
2023/09/12 07:25:59;;;;;;;5.90;5.40;;;;;;;;;;6155212;23;20270;-89
2023/09/12 07:28:26;;;;;;;10.55;9.55;;;;;;;;;;6155520;23;20274;-88
2023/09/12 07:30:54;;;;;;;12.02;10.85;;;;;;;;;;6157835;23;20258;-90
2023/09/12 07:33:22;;;;;;;12.82;11.32;;;;;;;;;;6155245;23;20206;-87
2023/09/12 07:35:50;;;;;;;10.70;9.68;;;;;;;;;;6155304;23;20271;-87
2023/09/12 07:38:17;;;;;;;8.77;7.95;;;;;;;;;;6154866;23;20246;-86
2023/09/12 07:40:45;;;;;;;6.82;6.22;;;;;;;;;;6155691;23;20179;-87
2023/09/12 07:43:14;;;;;;;8.40;7.63;;;;;;;;;;6154738;23;20203;-87
2023/09/12 07:45:41;;;;;;;8.38;7.15;;;;;;;;;;6157773;23;20195;-89
2023/09/12 07:48:11;;;;;;;10.02;9.07;;;;;;;;;;6156549;23;20205;-89
2023/09/12 07:50:39;;;;;;;6.72;6.13;;;;;;;;;;6155734;23;20175;-91
2023/09/12 07:53:06;;;;;;;7.30;6.70;;;;;;;;;;6155502;23;20175;-90
2023/09/12 07:55:44;;;;;;;7.05;6.45;;;;;;;;;;6161434;23;20222;-89
2023/09/12 07:58:14;;;;;;;7.75;6.95;;;;;;;;;;6155970;23;20226;-88
2023/09/12 08:00:42;;;;;;;14.98;9.65;;;;;;;;;;6155221;23;20261;-87
2023/09/12 08:03:09;;;;;;;11.45;10.23;;;;;;;;;;6155741;23;20631;-88
2023/09/12 08:05:38;;;;;;;19.48;12.02;;;;;;;;;;6155615;23;20219;-88
2023/09/12 08:08:06;;;;;;;9.55;8.63;;;;;;;;;;6155325;23;20201;-89
2023/09/12 08:10:33;;;;;;;7.88;7.18;;;;;;;;;;6154980;23;20175;-88
2023/09/12 08:13:01;;;;;;;7.90;7.10;;;;;;;;;;6155439;23;20171;-89
2023/09/12 08:15:30;;;;;;;6.53;6.00;;;;;;;;;;6157913;23;20578;-92
2023/09/12 08:17:57;;;;;;;5.32;4.82;;;;;;;;;;6162427;23;20175;-90
2023/09/12 08:20:25;;;;;;;6.10;5.57;;;;;;;;;;6157743;23;20695;-91
2023/09/12 08:22:53;;;;;;;6.03;5.53;;;;;;;;;;6157364;23;20182;-92
2023/09/12 08:25:20;;;;;;;5.05;4.57;;;;;;;;;;6156331;23;20215;-91
2023/09/12 08:27:48;;;;;;;5.43;5.00;;;;;;;;;;6160719;23;20186;-91
2023/09/12 08:30:16;;;;;;;5.57;5.18;;;;;;;;;;6164050;23;20211;-89
2023/09/12 08:32:45;;;;;;;5.70;5.20;;;;;;;;;;6156770;23;20250;-90
2023/09/12 08:35:13;;;;;;;5.53;4.72;;;;;;;;;;6156697;23;20202;-90
2023/09/12 08:37:42;;;;;;;5.75;5.25;;;;;;;;;;6156072;23;20255;-92
2023/09/12 08:40:11;;;;;;;4.97;4.55;;;;;;;;;;6156896;23;20195;-91
2023/09/12 08:42:43;;;;;;;4.93;4.53;;;;;;;;;;6155909;23;20171;-90
2023/09/12 08:45:14;;;;;;;4.50;4.10;;;;;;;;;;6155850;23;20253;-90
2023/09/12 08:47:45;;;;;;;4.03;3.70;;;;;;;;;;6156438;23;20254;-90
2023/09/12 08:50:14;;;;;;;8.35;4.72;;;;;;;;;;6156046;23;20267;-89
2023/09/12 08:52:43;;;;;;;3.58;3.20;;;;;;;;;;6175961;23;20167;-88
2023/09/12 08:55:10;;;;;;;2.90;2.70;;;;;;;;;;6183040;23;20205;-87
2023/09/12 08:57:40;;;;;;;4.97;3.13;;;;;;;;;;6182443;23;20163;-90
2023/09/12 09:00:10;;;;;;;3.45;3.20;;;;;;;;;;6167359;23;20199;-89
2023/09/12 09:02:39;;;;;;;3.78;3.00;;;;;;;;;;6155506;23;20254;-92
2023/09/12 09:05:10;;;;;;;5.50;3.75;;;;;;;;;;6156688;23;20594;-91
2023/09/12 09:07:38;;;;;;;4.40;4.00;;;;;;;;;;6155775;23;20259;-91
2023/09/12 09:10:08;;;;;;;4.97;4.57;;;;;;;;;;6154851;23;20191;-90
2023/09/12 09:12:37;;;;;;;6.85;6.22;;;;;;;;;;6155637;23;20175;-90
2023/09/12 09:15:27;;;;;;;7.05;6.35;;;;;;;;;;6154831;23;20718;-90
2023/09/12 09:17:57;;;;;;;4.43;4.03;;;;;;;;;;6156353;23;20175;-90
2023/09/12 09:20:32;;;;;;;3.65;3.35;;;;;;;;;;6155947;23;20227;-90
2023/09/12 09:23:05;;;;;;;5.13;4.63;;;;;;;;;;6154829;23;20634;-90
2023/09/12 09:25:33;;;;;;;4.38;4.05;;;;;;;;;;6155354;23;20202;-90
2023/09/12 09:28:03;;;;;;;4.80;4.20;;;;;;;;;;6155518;23;20193;-91
2023/09/12 09:30:45;;;;;;;3.72;3.42;;;;;;;;;;6155173;23;20215;-90
2023/09/12 09:33:14;;;;;;;5.45;4.90;;;;;;;;;;6154271;23;20242;-89
2023/09/12 09:35:48;;;;;;;4.60;4.20;;;;;;;;;;6154919;23;20195;-92
2023/09/12 09:38:18;;;;;;;5.18;4.72;;;;;;;;;;6155478;23;20588;-91
2023/09/12 09:40:46;;;;;;;5.32;4.82;;;;;;;;;;6155159;23;20171;-90
2023/09/12 09:43:14;;;;;;;4.70;4.28;;;;;;;;;;6153907;23;20214;-89
2023/09/12 09:45:46;;;;;;;4.88;4.45;;;;;;;;;;6154319;23;20195;-89
2023/09/12 09:48:20;;;;;;;4.28;3.83;;;;;;;;;;6154827;23;20488;-90
2023/09/12 09:50:49;;;;;;;5.28;4.93;;;;;;;;;;6154419;23;20265;-88
2023/09/12 09:53:17;;;;;;;7.00;4.97;;;;;;;;;;6154295;23;20171;-89
2023/09/12 09:55:44;;;;;;;5.43;4.97;;;;;;;;;;6154547;23;20241;-89
2023/09/12 09:58:17;;;;;;;5.03;4.63;;;;;;;;;;6155038;23;20214;-87
2023/09/12 10:00:45;;;;;;;4.38;3.70;;;;;;;;;;6154493;23;20596;-88
2023/09/12 10:03:13;;;;;;;3.28;2.80;;;;;;;;;;6154457;23;20270;-89
2023/09/12 10:05:41;;;;;;;3.65;3.35;;;;;;;;;;6154609;23;20195;-89
2023/09/12 10:08:11;;;;;;;4.70;4.03;;;;;;;;;;6154187;23;20177;-91
2023/09/12 10:10:40;;;;;;;5.70;3.67;;;;;;;;;;6153937;23;20270;-87
2023/09/12 10:13:07;;;;;;;4.97;3.78;;;;;;;;;;6154327;23;20249;-89
2023/09/12 10:15:36;;;;;;;5.13;4.63;;;;;;;;;;6153713;23;20302;-89
2023/09/12 10:18:08;;;;;;;4.10;3.65;;;;;;;;;;6153969;23;20254;-88
2023/09/12 10:20:40;;;;;;;4.97;4.40;;;;;;;;;;6154216;23;20242;-88
2023/09/12 10:23:13;;;;;;;4.75;4.35;;;;;;;;;;6155453;23;20178;-88
2023/09/12 10:25:41;;;;;;;4.97;4.40;;;;;;;;;;6156145;23;20562;-89
2023/09/12 10:28:09;;;;;;;3.42;3.20;;;;;;;;;;6155702;23;20258;-88
2023/09/12 10:30:37;;;;;;;4.90;4.30;;;;;;;;;;6156019;23;20598;-88
2023/09/12 10:33:05;;;;;;;4.22;3.85;;;;;;;;;;6155453;23;20510;-89
2023/09/12 10:35:33;;;;;;;4.50;4.10;;;;;;;;;;6156308;23;20273;-89
2023/09/12 10:38:04;;;;;;;5.63;4.22;;;;;;;;;;6156126;23;20714;-89
2023/09/12 10:40:34;;;;;;;4.68;4.13;;;;;;;;;;6155969;23;20177;-88
2023/09/12 10:43:05;;;;;;;3.35;3.15;;;;;;;;;;6156217;23;20504;-89
2023/09/12 10:45:33;;;;;;;5.65;4.88;;;;;;;;;;6155949;23;20202;-88
2023/09/12 10:48:01;;;;;;;4.95;4.60;;;;;;;;;;6155611;23;20186;-88
2023/09/12 10:50:29;;;;;;;5.63;4.70;;;;;;;;;;6155860;23;20281;-88
2023/09/12 10:53:08;;;;;;;3.65;3.45;;;;;;;;;;6155435;23;20183;-88
2023/09/12 10:55:37;;;;;;;3.13;2.92;;;;;;;;;;6155814;23;20585;-88
2023/09/12 10:58:06;;;;;;;4.72;3.65;;;;;;;;;;6156270;23;20246;-88
2023/09/12 11:00:34;;;;;;;4.63;4.22;;;;;;;;;;6156204;23;20258;-88
2023/09/12 11:03:34;;;;;;;4.50;4.20;;;;;;;;;;6155449;23;20179;-87
2023/09/12 11:06:04;;;;;;;4.38;3.97;;;;;;;;;;6155315;23;20238;-89
2023/09/12 11:08:37;;;;;;;5.05;4.57;;;;;;;;;;6160558;23;20207;-88
2023/09/12 11:11:22;;;;;;;3.78;3.38;;;;;;;;;;6155356;23;20191;-90
2023/09/12 11:14:04;;;;;;;5.55;5.05;;;;;;;;;;6155761;23;20570;-90
2023/09/12 11:16:33;;;;;;;5.28;4.90;;;;;;;;;;6160474;23;20250;-90
2023/09/12 11:19:18;;;;;;;6.07;5.50;;;;;;;;;;6158784;23;20171;-90
2023/09/12 11:21:47;;;;;;;5.70;5.25;;;;;;;;;;6156793;23;20174;-88
2023/09/12 11:24:15;;;;;;;5.63;5.13;;;;;;;;;;6156586;23;20175;-89
2023/09/12 11:27:01;;;;;;;10.85;5.47;;;;;;;;;;6158993;23;20266;-88
2023/09/12 11:29:30;;;;;;;4.93;4.43;;;;;;;;;;6161582;23;20226;-91
2023/09/12 11:31:59;;;;;;;6.15;5.15;;;;;;;;;;6159098;23;20274;-90
2023/09/12 11:34:28;;;;;;;7.80;6.07;;;;;;;;;;6157668;23;20179;-89
2023/09/12 11:37:00;;;;;;;7.22;5.07;;;;;;;;;;6157133;23;20234;-91
2023/09/12 11:39:31;;;;;;;4.72;4.43;;;;;;;;;;6165489;23;20182;-93
2023/09/12 11:42:01;;;;;;;5.70;5.13;;;;;;;;;;6156555;23;20234;-92
2023/09/12 11:44:30;;;;;;;5.38;4.90;;;;;;;;;;6155915;23;20230;-88
2023/09/12 11:47:02;;;;;;;5.45;4.95;;;;;;;;;;6156393;23;20191;-88
2023/09/12 11:49:36;;;;;;;4.68;4.20;;;;;;;;;;6157035;23;20159;-88
2023/09/12 11:52:04;;;;;;;8.88;8.07;;;;;;;;;;6155602;23;20262;-89
2023/09/12 11:54:32;;;;;;;8.95;8.10;;;;;;;;;;6156673;23;20277;-89
2023/09/12 11:57:03;;;;;;;4.97;4.57;;;;;;;;;;6156937;23;20210;-89
2023/09/12 11:59:31;;;;;;;5.85;4.60;;;;;;;;;;6156494;23;20190;-89
2023/09/12 12:01:59;;;;;;;5.07;4.68;;;;;;;;;;6156223;23;20250;-88
2023/09/12 12:04:27;;;;;;;5.28;4.47;;;;;;;;;;6156881;23;20171;-90
2023/09/12 12:06:55;;;;;;;6.28;5.20;;;;;;;;;;6164831;23;20253;-88
2023/09/12 12:09:22;;;;;;;4.63;4.30;;;;;;;;;;6156909;23;20245;-88
2023/09/12 12:11:50;;;;;;;6.03;5.00;;;;;;;;;;6155965;23;20234;-89
2023/09/12 12:14:19;;;;;;;4.57;4.25;;;;;;;;;;6156584;23;20177;-90
2023/09/12 12:16:48;;;;;;;4.70;3.97;;;;;;;;;;6161820;23;20270;-91
2023/09/12 12:19:16;;;;;;;4.10;3.72;;;;;;;;;;6156624;23;20237;-90
2023/09/12 12:21:44;;;;;;;4.40;4.00;;;;;;;;;;6155885;23;20203;-87
2023/09/12 12:24:14;;;;;;;5.10;4.63;;;;;;;;;;6157396;23;20198;-89
2023/09/12 12:26:43;;;;;;;5.18;3.58;;;;;;;;;;6156893;23;20670;-89
2023/09/12 12:29:11;;;;;;;5.50;3.78;;;;;;;;;;6157589;23;20489;-90
2023/09/12 12:31:40;;;;;;;5.45;4.40;;;;;;;;;;6161294;23;20223;-88
2023/09/12 12:34:08;;;;;;;6.10;4.65;;;;;;;;;;6156542;23;20202;-88
2023/09/12 12:36:43;;;;;;;4.35;3.97;;;;;;;;;;6155916;23;20599;-89
2023/09/12 12:39:12;;;;;;;4.10;3.80;;;;;;;;;;6155699;23;20175;-88
2023/09/12 12:41:40;;;;;;;4.65;4.00;;;;;;;;;;6155817;23;20172;-88
2023/09/12 12:44:07;;;;;;;4.25;3.95;;;;;;;;;;6155937;23;20258;-89
2023/09/12 12:46:35;;;;;;;5.72;5.22;;;;;;;;;;6155488;23;20226;-89
2023/09/12 12:49:04;;;;;;;5.30;4.85;;;;;;;;;;6152872;23;20253;-88
2023/09/12 12:51:32;;;;;;;5.53;5.03;;;;;;;;;;6153701;23;20227;-88
2023/09/12 12:54:06;;;;;;;6.82;5.78;;;;;;;;;;6154941;23;20246;-88
2023/09/12 12:56:34;;;;;;;4.57;4.28;;;;;;;;;;6155276;23;20201;-88
2023/09/12 12:59:03;;;;;;;6.43;4.78;;;;;;;;;;6154054;23;20242;-88
2023/09/12 13:01:31;;;;;;;4.75;4.40;;;;;;;;;;6154047;23;20225;-88
2023/09/12 13:03:58;;;;;;;4.47;3.90;;;;;;;;;;6155117;23;20171;-89
2023/09/12 13:06:29;;;;;;;4.57;4.10;;;;;;;;;;6154863;23;20262;-88
2023/09/12 13:09:01;;;;;;;3.90;3.60;;;;;;;;;;6169404;23;20167;-89
2023/09/12 13:11:29;;;;;;;4.50;4.20;;;;;;;;;;6157453;23;20210;-88
2023/09/12 13:13:56;;;;;;;4.18;3.85;;;;;;;;;;6182839;23;20166;-89
2023/09/12 13:16:24;;;;;;;5.47;4.97;;;;;;;;;;6158890;23;20197;-90
2023/09/12 13:18:51;;;;;;;8.73;4.43;;;;;;;;;;6155163;23;20254;-91
2023/09/12 13:21:19;;;;;;;4.70;4.30;;;;;;;;;;6155337;23;20265;-91
2023/09/12 13:23:48;;;;;;;6.18;5.68;;;;;;;;;;6154655;23;20238;-91
2023/09/12 13:26:16;;;;;;;4.28;3.90;;;;;;;;;;6154360;23;20199;-90
2023/09/12 13:28:43;;;;;;;4.50;4.10;;;;;;;;;;6157686;23;20579;-90
2023/09/12 13:31:11;;;;;;;5.60;4.72;;;;;;;;;;6154499;23;20247;-91
2023/09/12 13:33:39;;;;;;;5.88;5.03;;;;;;;;;;6149511;23;20293;-92
2023/09/12 13:36:07;;;;;;;6.53;5.18;;;;;;;;;;6157490;23;20197;-90
2023/09/12 13:38:35;;;;;;;5.45;4.93;;;;;;;;;;6154625;23;20250;-90
2023/09/12 13:41:04;;;;;;;5.55;4.95;;;;;;;;;;6154632;23;20202;-90
2023/09/12 13:43:32;;;;;;;5.43;4.93;;;;;;;;;;6154122;23;20167;-89
2023/09/12 13:45:59;;;;;;;6.05;5.53;;;;;;;;;;6154606;23;20195;-89
2023/09/12 13:48:27;;;;;;;4.30;4.00;;;;;;;;;;6155166;23;20190;-90
2023/09/12 13:50:55;;;;;;;4.90;4.50;;;;;;;;;;6155346;23;20190;-90
2023/09/12 13:53:23;;;;;;;4.00;3.70;;;;;;;;;;6154415;23;20654;-90
2023/09/12 13:55:50;;;;;;;4.82;4.35;;;;;;;;;;6154750;23;20222;-90
2023/09/12 13:58:19;;;;;;;3.95;3.58;;;;;;;;;;6157175;23;20174;-90
2023/09/12 14:00:47;;;;;;;3.67;3.40;;;;;;;;;;6156641;23;20243;-89
2023/09/12 14:03:14;;;;;;;3.67;3.30;;;;;;;;;;6156345;23;20182;-89
2023/09/12 14:05:42;;;;;;;3.67;3.38;;;;;;;;;;6156346;23;20243;-90
2023/09/12 14:08:09;;;;;;;3.03;2.72;;;;;;;;;;6156561;23;20246;-90
2023/09/12 14:10:37;;;;;;;3.08;2.78;;;;;;;;;;6156602;23;20572;-89
2023/09/12 14:13:05;;;;;;;3.35;3.15;;;;;;;;;;6156591;23;20719;-90
2023/09/12 14:15:34;;;;;;;4.38;3.80;;;;;;;;;;6157071;23;20226;-90
2023/09/12 14:18:02;;;;;;;4.68;3.83;;;;;;;;;;6156494;23;20246;-90
2023/09/12 14:20:29;;;;;;;4.57;3.72;;;;;;;;;;6156258;23;20179;-90
2023/09/12 14:22:58;;;;;;;4.40;3.97;;;;;;;;;;6156320;23;20243;-90
2023/09/12 14:25:25;;;;;;;3.33;3.03;;;;;;;;;;6156551;23;20197;-90
2023/09/12 14:27:53;;;;;;;3.47;3.15;;;;;;;;;;6157296;23;20226;-90
2023/09/12 14:30:22;;;;;;;3.30;3.10;;;;;;;;;;6163505;23;20242;-90
2023/09/12 14:32:51;;;;;;;3.80;3.00;;;;;;;;;;6156473;23;20721;-91
2023/09/12 14:35:19;;;;;;;3.80;3.50;;;;;;;;;;6126937;23;20262;-90
2023/09/12 14:37:48;;;;;;;4.47;4.07;;;;;;;;;;6126862;23;20195;-89
2023/09/12 14:40:16;;;;;;;4.50;4.20;;;;;;;;;;6127064;23;20183;-90
2023/09/12 14:42:44;;;;;;;3.88;3.47;;;;;;;;;;6126340;23;20178;-90
2023/09/12 14:45:12;;;;;;;3.17;2.95;;;;;;;;;;6126805;23;20207;-91
2023/09/12 14:47:39;;;;;;;2.45;2.35;;;;;;;;;;6127115;23;20242;-90
2023/09/12 14:50:10;;;;;;;3.33;3.03;;;;;;;;;;6126185;23;20243;-90
2023/09/12 14:52:38;;;;;;;3.58;3.28;;;;;;;;;;6126495;23;20263;-90